sensor_id;sensor_type;location;lat;lon;timestamp;P1;durP1;ratioP1;P2;durP2;ratioP2
25511;SDS011;13414;44.534;18.700;2023-07-22T00:02:26;15.63;;;8.55;;
25511;SDS011;13414;44.534;18.700;2023-07-22T00:04:53;13.85;;;8.00;;
25511;SDS011;13414;44.534;18.700;2023-07-22T00:07:20;12.10;;;7.93;;
25511;SDS011;13414;44.534;18.700;2023-07-22T00:09:48;14.50;;;7.93;;
25511;SDS011;13414;44.534;18.700;2023-07-22T00:12:16;12.40;;;7.70;;
25511;SDS011;13414;44.534;18.700;2023-07-22T00:14:45;11.30;;;7.00;;
25511;SDS011;13414;44.534;18.700;2023-07-22T00:17:12;14.23;;;7.78;;
25511;SDS011;13414;44.534;18.700;2023-07-22T00:19:40;9.43;;;6.53;;
25511;SDS011;13414;44.534;18.700;2023-07-22T00:22:07;16.73;;;7.00;;
25511;SDS011;13414;44.534;18.700;2023-07-22T00:24:35;15.27;;;7.47;;
25511;SDS011;13414;44.534;18.700;2023-07-22T00:27:02;17.27;;;7.90;;
25511;SDS011;13414;44.534;18.700;2023-07-22T00:29:31;14.52;;;7.85;;
25511;SDS011;13414;44.534;18.700;2023-07-22T00:32:00;15.75;;;7.90;;
25511;SDS011;13414;44.534;18.700;2023-07-22T00:34:27;12.43;;;8.00;;
25511;SDS011;13414;44.534;18.700;2023-07-22T00:36:55;15.18;;;7.45;;
25511;SDS011;13414;44.534;18.700;2023-07-22T00:39:23;13.52;;;7.43;;
25511;SDS011;13414;44.534;18.700;2023-07-22T00:41:51;13.90;;;7.97;;
25511;SDS011;13414;44.534;18.700;2023-07-22T00:44:18;14.05;;;7.35;;
25511;SDS011;13414;44.534;18.700;2023-07-22T00:46:45;11.70;;;7.30;;
25511;SDS011;13414;44.534;18.700;2023-07-22T00:49:15;13.00;;;6.90;;
25511;SDS011;13414;44.534;18.700;2023-07-22T00:51:43;14.90;;;7.28;;
25511;SDS011;13414;44.534;18.700;2023-07-22T00:54:11;13.35;;;6.85;;
25511;SDS011;13414;44.534;18.700;2023-07-22T00:56:39;14.40;;;6.95;;
25511;SDS011;13414;44.534;18.700;2023-07-22T00:59:07;18.42;;;8.43;;
25511;SDS011;13414;44.534;18.700;2023-07-22T01:01:35;16.67;;;9.55;;
25511;SDS011;13414;44.534;18.700;2023-07-22T01:04:02;61.25;;;47.42;;
25511;SDS011;13414;44.534;18.700;2023-07-22T01:06:32;14.30;;;8.50;;
25511;SDS011;13414;44.534;18.700;2023-07-22T01:09:01;15.00;;;7.88;;
25511;SDS011;13414;44.534;18.700;2023-07-22T01:11:30;12.95;;;7.90;;
25511;SDS011;13414;44.534;18.700;2023-07-22T01:13:57;18.25;;;8.52;;
25511;SDS011;13414;44.534;18.700;2023-07-22T01:16:25;15.38;;;7.90;;
25511;SDS011;13414;44.534;18.700;2023-07-22T01:18:54;16.27;;;8.20;;
25511;SDS011;13414;44.534;18.700;2023-07-22T01:21:22;16.85;;;8.63;;
25511;SDS011;13414;44.534;18.700;2023-07-22T01:23:52;12.00;;;8.57;;
25511;SDS011;13414;44.534;18.700;2023-07-22T01:26:22;14.80;;;7.85;;
25511;SDS011;13414;44.534;18.700;2023-07-22T01:28:50;11.85;;;6.53;;
25511;SDS011;13414;44.534;18.700;2023-07-22T01:31:17;14.40;;;7.07;;
25511;SDS011;13414;44.534;18.700;2023-07-22T01:33:45;15.88;;;7.20;;
25511;SDS011;13414;44.534;18.700;2023-07-22T01:36:12;14.57;;;6.97;;
25511;SDS011;13414;44.534;18.700;2023-07-22T01:38:40;15.00;;;7.60;;
25511;SDS011;13414;44.534;18.700;2023-07-22T01:41:08;15.15;;;7.25;;
25511;SDS011;13414;44.534;18.700;2023-07-22T01:43:36;17.70;;;7.97;;
25511;SDS011;13414;44.534;18.700;2023-07-22T01:46:03;15.57;;;8.05;;
25511;SDS011;13414;44.534;18.700;2023-07-22T01:48:31;12.82;;;6.97;;
25511;SDS011;13414;44.534;18.700;2023-07-22T01:50:58;17.35;;;7.55;;
25511;SDS011;13414;44.534;18.700;2023-07-22T01:53:25;15.32;;;7.90;;
25511;SDS011;13414;44.534;18.700;2023-07-22T01:55:53;19.13;;;8.35;;
25511;SDS011;13414;44.534;18.700;2023-07-22T01:58:22;12.23;;;7.40;;
25511;SDS011;13414;44.534;18.700;2023-07-22T02:00:49;17.80;;;8.23;;
25511;SDS011;13414;44.534;18.700;2023-07-22T02:03:18;14.43;;;9.13;;
25511;SDS011;13414;44.534;18.700;2023-07-22T02:05:46;18.27;;;9.73;;
25511;SDS011;13414;44.534;18.700;2023-07-22T02:08:13;21.55;;;10.68;;
25511;SDS011;13414;44.534;18.700;2023-07-22T02:10:40;16.58;;;9.05;;
25511;SDS011;13414;44.534;18.700;2023-07-22T02:13:08;14.40;;;8.25;;
25511;SDS011;13414;44.534;18.700;2023-07-22T02:15:37;15.60;;;8.30;;
25511;SDS011;13414;44.534;18.700;2023-07-22T02:18:04;16.92;;;9.80;;
25511;SDS011;13414;44.534;18.700;2023-07-22T02:20:31;21.98;;;12.07;;
25511;SDS011;13414;44.534;18.700;2023-07-22T02:22:59;26.52;;;13.38;;
25511;SDS011;13414;44.534;18.700;2023-07-22T02:25:26;33.08;;;15.75;;
25511;SDS011;13414;44.534;18.700;2023-07-22T02:27:54;30.73;;;14.60;;
25511;SDS011;13414;44.534;18.700;2023-07-22T02:30:21;29.00;;;15.80;;
25511;SDS011;13414;44.534;18.700;2023-07-22T02:32:50;33.22;;;17.13;;
25511;SDS011;13414;44.534;18.700;2023-07-22T02:35:17;34.20;;;17.80;;
25511;SDS011;13414;44.534;18.700;2023-07-22T02:37:45;33.08;;;17.85;;
25511;SDS011;13414;44.534;18.700;2023-07-22T02:40:12;31.63;;;16.52;;
25511;SDS011;13414;44.534;18.700;2023-07-22T02:42:39;34.65;;;18.00;;
25511;SDS011;13414;44.534;18.700;2023-07-22T02:45:07;31.85;;;18.80;;
25511;SDS011;13414;44.534;18.700;2023-07-22T02:47:35;39.58;;;19.00;;
25511;SDS011;13414;44.534;18.700;2023-07-22T02:50:05;35.45;;;19.05;;
25511;SDS011;13414;44.534;18.700;2023-07-22T02:52:33;36.00;;;18.90;;
25511;SDS011;13414;44.534;18.700;2023-07-22T02:55:04;91.80;;;31.55;;
25511;SDS011;13414;44.534;18.700;2023-07-22T02:57:33;135.70;;;38.80;;
25511;SDS011;13414;44.534;18.700;2023-07-22T03:00:01;325.85;;;81.00;;
25511;SDS011;13414;44.534;18.700;2023-07-22T03:02:32;306.10;;;81.53;;
25511;SDS011;13414;44.534;18.700;2023-07-22T03:05:00;295.00;;;90.80;;
25511;SDS011;13414;44.534;18.700;2023-07-22T03:07:31;264.45;;;85.82;;
25511;SDS011;13414;44.534;18.700;2023-07-22T03:09:59;196.95;;;72.07;;
25511;SDS011;13414;44.534;18.700;2023-07-22T03:12:27;199.95;;;74.50;;
25511;SDS011;13414;44.534;18.700;2023-07-22T03:14:54;171.10;;;67.75;;
25511;SDS011;13414;44.534;18.700;2023-07-22T03:17:22;191.13;;;66.95;;
25511;SDS011;13414;44.534;18.700;2023-07-22T03:19:49;195.65;;;69.03;;
25511;SDS011;13414;44.534;18.700;2023-07-22T03:22:17;201.15;;;66.22;;
25511;SDS011;13414;44.534;18.700;2023-07-22T03:24:46;198.00;;;59.67;;
25511;SDS011;13414;44.534;18.700;2023-07-22T03:27:15;161.30;;;55.58;;
25511;SDS011;13414;44.534;18.700;2023-07-22T03:29:43;203.82;;;64.68;;
25511;SDS011;13414;44.534;18.700;2023-07-22T03:32:11;218.13;;;65.57;;
25511;SDS011;13414;44.534;18.700;2023-07-22T03:34:38;212.88;;;68.53;;
25511;SDS011;13414;44.534;18.700;2023-07-22T03:37:06;191.45;;;59.03;;
25511;SDS011;13414;44.534;18.700;2023-07-22T03:39:35;173.40;;;52.92;;
25511;SDS011;13414;44.534;18.700;2023-07-22T03:42:04;142.18;;;43.72;;
25511;SDS011;13414;44.534;18.700;2023-07-22T03:44:32;115.50;;;36.65;;
25511;SDS011;13414;44.534;18.700;2023-07-22T03:47:00;126.55;;;37.33;;
25511;SDS011;13414;44.534;18.700;2023-07-22T03:49:27;97.35;;;37.67;;
25511;SDS011;13414;44.534;18.700;2023-07-22T03:51:54;96.95;;;35.05;;
25511;SDS011;13414;44.534;18.700;2023-07-22T03:54:22;92.97;;;35.67;;
25511;SDS011;13414;44.534;18.700;2023-07-22T03:56:50;94.60;;;35.10;;
25511;SDS011;13414;44.534;18.700;2023-07-22T03:59:19;93.82;;;35.05;;
25511;SDS011;13414;44.534;18.700;2023-07-22T04:01:46;89.90;;;35.15;;
25511;SDS011;13414;44.534;18.700;2023-07-22T04:04:13;84.20;;;34.60;;
25511;SDS011;13414;44.534;18.700;2023-07-22T04:06:41;73.30;;;31.70;;
25511;SDS011;13414;44.534;18.700;2023-07-22T04:09:09;68.32;;;29.50;;
25511;SDS011;13414;44.534;18.700;2023-07-22T04:11:36;58.67;;;29.33;;
25511;SDS011;13414;44.534;18.700;2023-07-22T04:14:04;58.15;;;28.42;;
25511;SDS011;13414;44.534;18.700;2023-07-22T04:16:33;58.33;;;28.30;;
25511;SDS011;13414;44.534;18.700;2023-07-22T04:19:01;51.22;;;25.73;;
25511;SDS011;13414;44.534;18.700;2023-07-22T04:21:29;46.78;;;24.67;;
25511;SDS011;13414;44.534;18.700;2023-07-22T04:23:56;41.45;;;23.65;;
25511;SDS011;13414;44.534;18.700;2023-07-22T04:26:24;43.47;;;23.20;;
25511;SDS011;13414;44.534;18.700;2023-07-22T04:28:54;43.35;;;23.52;;
25511;SDS011;13414;44.534;18.700;2023-07-22T04:34:02;39.03;;;22.73;;
25511;SDS011;13414;44.534;18.700;2023-07-22T04:36:30;42.72;;;24.00;;
25511;SDS011;13414;44.534;18.700;2023-07-22T04:38:58;41.38;;;23.35;;
25511;SDS011;13414;44.534;18.700;2023-07-22T04:41:25;34.72;;;22.15;;
25511;SDS011;13414;44.534;18.700;2023-07-22T04:43:53;37.60;;;21.95;;
25511;SDS011;13414;44.534;18.700;2023-07-22T04:46:20;32.65;;;20.25;;
25511;SDS011;13414;44.534;18.700;2023-07-22T04:48:50;33.28;;;21.23;;
25511;SDS011;13414;44.534;18.700;2023-07-22T04:51:19;39.90;;;21.95;;
25511;SDS011;13414;44.534;18.700;2023-07-22T04:53:46;35.38;;;20.67;;
25511;SDS011;13414;44.534;18.700;2023-07-22T04:56:14;32.70;;;20.02;;
25511;SDS011;13414;44.534;18.700;2023-07-22T04:58:41;36.17;;;20.80;;
25511;SDS011;13414;44.534;18.700;2023-07-22T05:01:10;31.60;;;19.45;;
25511;SDS011;13414;44.534;18.700;2023-07-22T05:03:37;35.10;;;20.98;;
25511;SDS011;13414;44.534;18.700;2023-07-22T05:06:07;36.10;;;24.30;;
25511;SDS011;13414;44.534;18.700;2023-07-22T05:08:35;34.22;;;19.45;;
25511;SDS011;13414;44.534;18.700;2023-07-22T05:11:03;30.85;;;18.70;;
25511;SDS011;13414;44.534;18.700;2023-07-22T05:13:31;29.55;;;17.70;;
25511;SDS011;13414;44.534;18.700;2023-07-22T05:15:58;26.92;;;16.80;;
25511;SDS011;13414;44.534;18.700;2023-07-22T05:18:26;27.50;;;16.77;;
25511;SDS011;13414;44.534;18.700;2023-07-22T05:20:53;25.27;;;16.75;;
25511;SDS011;13414;44.534;18.700;2023-07-22T05:23:28;28.50;;;18.38;;
25511;SDS011;13414;44.534;18.700;2023-07-22T05:25:56;31.25;;;19.33;;
25511;SDS011;13414;44.534;18.700;2023-07-22T05:28:24;31.27;;;21.77;;
25511;SDS011;13414;44.534;18.700;2023-07-22T05:30:51;31.55;;;19.23;;
25511;SDS011;13414;44.534;18.700;2023-07-22T05:33:23;36.17;;;19.15;;
25511;SDS011;13414;44.534;18.700;2023-07-22T05:35:50;26.42;;;17.27;;
25511;SDS011;13414;44.534;18.700;2023-07-22T05:38:18;25.83;;;17.35;;
25511;SDS011;13414;44.534;18.700;2023-07-22T05:40:49;26.35;;;16.90;;
25511;SDS011;13414;44.534;18.700;2023-07-22T05:43:19;61.15;;;21.38;;
25511;SDS011;13414;44.534;18.700;2023-07-22T05:45:46;29.73;;;18.38;;
25511;SDS011;13414;44.534;18.700;2023-07-22T05:48:14;32.30;;;19.23;;
25511;SDS011;13414;44.534;18.700;2023-07-22T05:50:41;27.15;;;16.80;;
25511;SDS011;13414;44.534;18.700;2023-07-22T05:53:09;22.08;;;14.38;;
25511;SDS011;13414;44.534;18.700;2023-07-22T05:55:36;25.90;;;13.85;;
25511;SDS011;13414;44.534;18.700;2023-07-22T06:00:42;23.00;;;13.98;;
25511;SDS011;13414;44.534;18.700;2023-07-22T06:03:10;29.17;;;15.35;;
25511;SDS011;13414;44.534;18.700;2023-07-22T06:05:37;26.98;;;13.85;;
25511;SDS011;13414;44.534;18.700;2023-07-22T06:08:05;23.33;;;13.75;;
25511;SDS011;13414;44.534;18.700;2023-07-22T06:10:33;23.98;;;13.23;;
25511;SDS011;13414;44.534;18.700;2023-07-22T06:13:03;23.75;;;13.07;;
25511;SDS011;13414;44.534;18.700;2023-07-22T06:15:32;21.98;;;12.20;;
25511;SDS011;13414;44.534;18.700;2023-07-22T06:18:01;19.48;;;11.70;;
25511;SDS011;13414;44.534;18.700;2023-07-22T06:20:29;21.52;;;11.15;;
25511;SDS011;13414;44.534;18.700;2023-07-22T06:22:57;23.35;;;11.05;;
25511;SDS011;13414;44.534;18.700;2023-07-22T06:25:24;18.52;;;9.65;;
25511;SDS011;13414;44.534;18.700;2023-07-22T06:27:55;20.05;;;10.73;;
25511;SDS011;13414;44.534;18.700;2023-07-22T06:30:22;18.95;;;11.35;;
25511;SDS011;13414;44.534;18.700;2023-07-22T06:32:54;21.02;;;12.68;;
25511;SDS011;13414;44.534;18.700;2023-07-22T06:35:22;24.10;;;12.27;;
25511;SDS011;13414;44.534;18.700;2023-07-22T06:37:49;22.10;;;11.32;;
25511;SDS011;13414;44.534;18.700;2023-07-22T06:40:20;24.65;;;11.25;;
25511;SDS011;13414;44.534;18.700;2023-07-22T06:42:54;20.42;;;12.50;;
25511;SDS011;13414;44.534;18.700;2023-07-22T06:45:22;24.02;;;12.23;;
25511;SDS011;13414;44.534;18.700;2023-07-22T06:47:49;18.55;;;9.63;;
25511;SDS011;13414;44.534;18.700;2023-07-22T06:50:18;14.40;;;8.30;;
25511;SDS011;13414;44.534;18.700;2023-07-22T06:52:46;17.55;;;9.15;;
25511;SDS011;13414;44.534;18.700;2023-07-22T06:55:13;14.10;;;8.93;;
25511;SDS011;13414;44.534;18.700;2023-07-22T06:57:41;16.90;;;9.20;;
25511;SDS011;13414;44.534;18.700;2023-07-22T07:00:16;14.95;;;8.50;;
25511;SDS011;13414;44.534;18.700;2023-07-22T07:05:14;15.20;;;6.70;;
25511;SDS011;13414;44.534;18.700;2023-07-22T07:07:45;12.88;;;6.65;;
25511;SDS011;13414;44.534;18.700;2023-07-22T07:10:16;14.63;;;7.78;;
25511;SDS011;13414;44.534;18.700;2023-07-22T07:12:44;13.85;;;6.65;;
25511;SDS011;13414;44.534;18.700;2023-07-22T07:15:12;10.65;;;6.32;;
25511;SDS011;13414;44.534;18.700;2023-07-22T07:17:39;9.63;;;5.28;;
25511;SDS011;13414;44.534;18.700;2023-07-22T07:20:07;12.70;;;5.15;;
25511;SDS011;13414;44.534;18.700;2023-07-22T07:22:38;10.75;;;5.60;;
25511;SDS011;13414;44.534;18.700;2023-07-22T07:25:09;14.52;;;5.57;;
25511;SDS011;13414;44.534;18.700;2023-07-22T07:27:40;9.57;;;5.32;;
25511;SDS011;13414;44.534;18.700;2023-07-22T07:30:08;13.65;;;5.43;;
25511;SDS011;13414;44.534;18.700;2023-07-22T07:32:39;11.13;;;5.18;;
25511;SDS011;13414;44.534;18.700;2023-07-22T07:35:07;12.18;;;5.90;;
25511;SDS011;13414;44.534;18.700;2023-07-22T07:37:42;9.45;;;5.40;;
25511;SDS011;13414;44.534;18.700;2023-07-22T07:40:29;15.63;;;5.95;;
25511;SDS011;13414;44.534;18.700;2023-07-22T07:43:01;11.70;;;6.32;;
25511;SDS011;13414;44.534;18.700;2023-07-22T07:45:39;12.90;;;7.05;;
25511;SDS011;13414;44.534;18.700;2023-07-22T07:48:07;11.55;;;6.35;;
25511;SDS011;13414;44.534;18.700;2023-07-22T07:50:35;14.95;;;6.65;;
25511;SDS011;13414;44.534;18.700;2023-07-22T07:53:02;10.10;;;5.72;;
25511;SDS011;13414;44.534;18.700;2023-07-22T07:55:31;9.88;;;5.80;;
25511;SDS011;13414;44.534;18.700;2023-07-22T07:58:07;12.93;;;6.95;;
25511;SDS011;13414;44.534;18.700;2023-07-22T08:00:37;12.55;;;5.57;;
25511;SDS011;13414;44.534;18.700;2023-07-22T08:03:05;9.82;;;5.20;;
25511;SDS011;13414;44.534;18.700;2023-07-22T08:05:34;9.00;;;4.18;;
25511;SDS011;13414;44.534;18.700;2023-07-22T08:08:01;12.65;;;5.45;;
25511;SDS011;13414;44.534;18.700;2023-07-22T08:10:32;12.85;;;6.80;;
25511;SDS011;13414;44.534;18.700;2023-07-22T08:13:00;14.10;;;5.40;;
25511;SDS011;13414;44.534;18.700;2023-07-22T08:15:27;12.32;;;6.95;;
25511;SDS011;13414;44.534;18.700;2023-07-22T08:17:55;11.75;;;7.20;;
25511;SDS011;13414;44.534;18.700;2023-07-22T08:20:23;15.35;;;8.27;;
25511;SDS011;13414;44.534;18.700;2023-07-22T08:22:51;18.60;;;10.05;;
25511;SDS011;13414;44.534;18.700;2023-07-22T08:25:28;14.77;;;8.90;;
25511;SDS011;13414;44.534;18.700;2023-07-22T08:27:57;12.65;;;8.40;;
25511;SDS011;13414;44.534;18.700;2023-07-22T08:30:24;12.13;;;7.13;;
25511;SDS011;13414;44.534;18.700;2023-07-22T08:32:54;15.25;;;7.30;;
25511;SDS011;13414;44.534;18.700;2023-07-22T08:35:26;17.75;;;9.02;;
25511;SDS011;13414;44.534;18.700;2023-07-22T08:37:53;15.57;;;8.55;;
25511;SDS011;13414;44.534;18.700;2023-07-22T08:40:21;10.52;;;6.57;;
25511;SDS011;13414;44.534;18.700;2023-07-22T08:42:49;12.65;;;7.35;;
25511;SDS011;13414;44.534;18.700;2023-07-22T08:45:21;47.72;;;35.08;;
25511;SDS011;13414;44.534;18.700;2023-07-22T08:48:00;62.25;;;49.05;;
25511;SDS011;13414;44.534;18.700;2023-07-22T08:50:34;13.05;;;7.18;;
25511;SDS011;13414;44.534;18.700;2023-07-22T08:53:06;17.80;;;12.35;;
25511;SDS011;13414;44.534;18.700;2023-07-22T08:55:34;17.25;;;9.93;;
25511;SDS011;13414;44.534;18.700;2023-07-22T08:58:02;22.58;;;16.05;;
25511;SDS011;13414;44.534;18.700;2023-07-22T09:00:32;14.90;;;9.13;;
25511;SDS011;13414;44.534;18.700;2023-07-22T09:03:02;11.15;;;7.38;;
25511;SDS011;13414;44.534;18.700;2023-07-22T09:05:31;19.15;;;12.23;;
25511;SDS011;13414;44.534;18.700;2023-07-22T09:08:00;16.73;;;10.30;;
25511;SDS011;13414;44.534;18.700;2023-07-22T09:10:29;15.63;;;10.18;;
25511;SDS011;13414;44.534;18.700;2023-07-22T09:12:57;18.25;;;10.13;;
25511;SDS011;13414;44.534;18.700;2023-07-22T09:15:26;13.73;;;8.05;;
25511;SDS011;13414;44.534;18.700;2023-07-22T09:17:55;10.07;;;5.50;;
25511;SDS011;13414;44.534;18.700;2023-07-22T09:20:23;9.95;;;5.40;;
25511;SDS011;13414;44.534;18.700;2023-07-22T09:22:56;10.18;;;5.30;;
25511;SDS011;13414;44.534;18.700;2023-07-22T09:25:26;9.10;;;4.82;;
25511;SDS011;13414;44.534;18.700;2023-07-22T09:27:54;8.25;;;5.18;;
25511;SDS011;13414;44.534;18.700;2023-07-22T09:30:25;9.50;;;5.10;;
25511;SDS011;13414;44.534;18.700;2023-07-22T09:32:54;11.10;;;5.75;;
25511;SDS011;13414;44.534;18.700;2023-07-22T09:35:26;14.25;;;6.30;;
25511;SDS011;13414;44.534;18.700;2023-07-22T09:37:54;10.07;;;5.97;;
25511;SDS011;13414;44.534;18.700;2023-07-22T09:40:23;10.07;;;6.60;;
25511;SDS011;13414;44.534;18.700;2023-07-22T09:42:53;11.27;;;6.50;;
25511;SDS011;13414;44.534;18.700;2023-07-22T09:45:22;9.95;;;5.90;;
25511;SDS011;13414;44.534;18.700;2023-07-22T09:47:51;10.43;;;6.03;;
25511;SDS011;13414;44.534;18.700;2023-07-22T09:50:22;8.25;;;5.70;;
25511;SDS011;13414;44.534;18.700;2023-07-22T09:52:51;12.98;;;5.38;;
25511;SDS011;13414;44.534;18.700;2023-07-22T09:55:20;11.98;;;6.40;;
25511;SDS011;13414;44.534;18.700;2023-07-22T09:57:50;8.32;;;5.82;;
25511;SDS011;13414;44.534;18.700;2023-07-22T10:00:19;8.88;;;6.05;;
25511;SDS011;13414;44.534;18.700;2023-07-22T10:02:51;10.70;;;6.10;;
25511;SDS011;13414;44.534;18.700;2023-07-22T10:05:19;8.93;;;6.10;;
25511;SDS011;13414;44.534;18.700;2023-07-22T10:07:49;10.20;;;6.40;;
25511;SDS011;13414;44.534;18.700;2023-07-22T10:10:18;9.30;;;5.78;;
25511;SDS011;13414;44.534;18.700;2023-07-22T10:12:46;9.43;;;5.97;;
25511;SDS011;13414;44.534;18.700;2023-07-22T10:15:15;10.20;;;5.30;;
25511;SDS011;13414;44.534;18.700;2023-07-22T10:17:44;13.98;;;7.35;;
25511;SDS011;13414;44.534;18.700;2023-07-22T10:20:12;23.35;;;17.02;;
25511;SDS011;13414;44.534;18.700;2023-07-22T10:22:43;8.63;;;5.80;;
25511;SDS011;13414;44.534;18.700;2023-07-22T10:25:12;10.20;;;6.18;;
25511;SDS011;13414;44.534;18.700;2023-07-22T10:27:41;8.85;;;6.45;;
25511;SDS011;13414;44.534;18.700;2023-07-22T10:30:10;12.27;;;7.05;;
25511;SDS011;13414;44.534;18.700;2023-07-22T10:32:38;10.48;;;7.30;;
25511;SDS011;13414;44.534;18.700;2023-07-22T10:35:08;7.75;;;4.85;;
25511;SDS011;13414;44.534;18.700;2023-07-22T10:37:39;7.55;;;6.30;;
25511;SDS011;13414;44.534;18.700;2023-07-22T10:40:19;9.13;;;5.45;;
25511;SDS011;13414;44.534;18.700;2023-07-22T10:42:52;8.50;;;4.40;;
25511;SDS011;13414;44.534;18.700;2023-07-22T10:45:24;5.82;;;3.95;;
25511;SDS011;13414;44.534;18.700;2023-07-22T10:48:01;8.73;;;5.35;;
25511;SDS011;13414;44.534;18.700;2023-07-22T10:50:37;9.18;;;5.50;;
25511;SDS011;13414;44.534;18.700;2023-07-22T10:53:09;9.27;;;4.93;;
25511;SDS011;13414;44.534;18.700;2023-07-22T10:58:32;12.38;;;6.97;;
25511;SDS011;13414;44.534;18.700;2023-07-22T11:06:56;11.25;;;6.10;;
25511;SDS011;13414;44.534;18.700;2023-07-22T11:09:34;9.23;;;5.05;;
25511;SDS011;13414;44.534;18.700;2023-07-22T11:12:05;8.90;;;5.72;;
25511;SDS011;13414;44.534;18.700;2023-07-22T11:14:34;7.60;;;4.78;;
25511;SDS011;13414;44.534;18.700;2023-07-22T11:17:05;7.30;;;4.78;;
25511;SDS011;13414;44.534;18.700;2023-07-22T11:19:34;7.72;;;5.95;;
25511;SDS011;13414;44.534;18.700;2023-07-22T11:22:02;5.25;;;4.20;;
25511;SDS011;13414;44.534;18.700;2023-07-22T11:24:31;7.65;;;3.97;;
25511;SDS011;13414;44.534;18.700;2023-07-22T11:26:59;8.80;;;4.38;;
25511;SDS011;13414;44.534;18.700;2023-07-22T11:29:31;6.57;;;4.80;;
25511;SDS011;13414;44.534;18.700;2023-07-22T11:31:59;6.25;;;4.90;;
25511;SDS011;13414;44.534;18.700;2023-07-22T11:34:34;7.68;;;5.25;;
25511;SDS011;13414;44.534;18.700;2023-07-22T11:37:01;7.57;;;5.60;;
25511;SDS011;13414;44.534;18.700;2023-07-22T11:39:30;8.63;;;4.60;;
25511;SDS011;13414;44.534;18.700;2023-07-22T11:41:59;10.30;;;5.35;;
25511;SDS011;13414;44.534;18.700;2023-07-22T11:44:28;10.52;;;5.20;;
25511;SDS011;13414;44.534;18.700;2023-07-22T11:46:58;9.85;;;5.00;;
25511;SDS011;13414;44.534;18.700;2023-07-22T11:49:27;8.60;;;5.13;;
25511;SDS011;13414;44.534;18.700;2023-07-22T11:51:57;6.90;;;4.22;;
25511;SDS011;13414;44.534;18.700;2023-07-22T11:54:26;5.97;;;3.80;;
25511;SDS011;13414;44.534;18.700;2023-07-22T11:56:54;6.90;;;3.88;;
25511;SDS011;13414;44.534;18.700;2023-07-22T11:59:34;7.70;;;4.18;;
25511;SDS011;13414;44.534;18.700;2023-07-22T12:02:05;6.85;;;4.85;;
25511;SDS011;13414;44.534;18.700;2023-07-22T12:04:39;8.52;;;4.38;;
25511;SDS011;13414;44.534;18.700;2023-07-22T12:07:06;6.60;;;4.72;;
25511;SDS011;13414;44.534;18.700;2023-07-22T12:09:48;6.53;;;4.30;;
25511;SDS011;13414;44.534;18.700;2023-07-22T12:12:16;9.70;;;4.78;;
25511;SDS011;13414;44.534;18.700;2023-07-22T12:14:43;9.38;;;4.72;;
25511;SDS011;13414;44.534;18.700;2023-07-22T12:17:12;10.45;;;5.93;;
25511;SDS011;13414;44.534;18.700;2023-07-22T12:19:50;9.10;;;5.85;;
25511;SDS011;13414;44.534;18.700;2023-07-22T12:22:18;5.97;;;4.70;;
25511;SDS011;13414;44.534;18.700;2023-07-22T12:24:46;6.75;;;4.68;;
25511;SDS011;13414;44.534;18.700;2023-07-22T12:27:14;6.72;;;4.47;;
25511;SDS011;13414;44.534;18.700;2023-07-22T12:29:41;6.40;;;4.53;;
25511;SDS011;13414;44.534;18.700;2023-07-22T12:32:09;8.80;;;4.82;;
25511;SDS011;13414;44.534;18.700;2023-07-22T12:34:38;5.95;;;4.72;;
25511;SDS011;13414;44.534;18.700;2023-07-22T12:37:06;10.77;;;5.75;;
25511;SDS011;13414;44.534;18.700;2023-07-22T12:39:33;7.50;;;4.47;;
25511;SDS011;13414;44.534;18.700;2023-07-22T12:42:01;8.57;;;5.40;;
25511;SDS011;13414;44.534;18.700;2023-07-22T12:44:28;8.52;;;4.53;;
25511;SDS011;13414;44.534;18.700;2023-07-22T12:46:55;6.47;;;4.45;;
25511;SDS011;13414;44.534;18.700;2023-07-22T12:49:23;6.68;;;4.35;;
25511;SDS011;13414;44.534;18.700;2023-07-22T12:51:52;7.28;;;4.75;;
25511;SDS011;13414;44.534;18.700;2023-07-22T12:54:21;10.02;;;4.97;;
25511;SDS011;13414;44.534;18.700;2023-07-22T12:56:48;7.75;;;4.82;;
25511;SDS011;13414;44.534;18.700;2023-07-22T12:59:16;6.53;;;4.72;;
25511;SDS011;13414;44.534;18.700;2023-07-22T13:01:43;7.45;;;4.82;;
25511;SDS011;13414;44.534;18.700;2023-07-22T13:04:11;9.15;;;4.95;;
25511;SDS011;13414;44.534;18.700;2023-07-22T13:06:38;11.52;;;4.97;;
25511;SDS011;13414;44.534;18.700;2023-07-22T13:09:08;9.07;;;4.65;;
25511;SDS011;13414;44.534;18.700;2023-07-22T13:11:37;5.88;;;4.68;;
25511;SDS011;13414;44.534;18.700;2023-07-22T13:14:04;9.00;;;7.10;;
25511;SDS011;13414;44.534;18.700;2023-07-22T13:16:32;9.15;;;5.88;;
25511;SDS011;13414;44.534;18.700;2023-07-22T13:18:59;7.10;;;5.45;;
25511;SDS011;13414;44.534;18.700;2023-07-22T13:21:28;7.75;;;4.43;;
25511;SDS011;13414;44.534;18.700;2023-07-22T13:23:55;6.22;;;4.82;;
25511;SDS011;13414;44.534;18.700;2023-07-22T13:26:25;7.90;;;4.85;;
25511;SDS011;13414;44.534;18.700;2023-07-22T13:28:53;6.90;;;4.60;;
25511;SDS011;13414;44.534;18.700;2023-07-22T13:31:20;7.35;;;5.25;;
25511;SDS011;13414;44.534;18.700;2023-07-22T13:33:48;8.88;;;4.82;;
25511;SDS011;13414;44.534;18.700;2023-07-22T13:36:15;7.57;;;4.95;;
25511;SDS011;13414;44.534;18.700;2023-07-22T13:38:43;7.38;;;5.03;;
25511;SDS011;13414;44.534;18.700;2023-07-22T13:41:10;7.30;;;4.75;;
25511;SDS011;13414;44.534;18.700;2023-07-22T13:43:40;8.45;;;5.13;;
25511;SDS011;13414;44.534;18.700;2023-07-22T13:46:07;7.88;;;5.20;;
25511;SDS011;13414;44.534;18.700;2023-07-22T13:48:35;8.13;;;5.10;;
25511;SDS011;13414;44.534;18.700;2023-07-22T13:51:02;6.70;;;4.93;;
25511;SDS011;13414;44.534;18.700;2023-07-22T13:53:30;8.02;;;5.32;;
25511;SDS011;13414;44.534;18.700;2023-07-22T13:55:57;11.10;;;5.80;;
25511;SDS011;13414;44.534;18.700;2023-07-22T13:58:25;9.50;;;5.20;;
25511;SDS011;13414;44.534;18.700;2023-07-22T14:00:54;7.63;;;4.70;;
25511;SDS011;13414;44.534;18.700;2023-07-22T14:03:21;5.55;;;4.75;;
25511;SDS011;13414;44.534;18.700;2023-07-22T14:05:48;8.75;;;5.20;;
25511;SDS011;13414;44.534;18.700;2023-07-22T14:08:16;6.93;;;4.90;;
25511;SDS011;13414;44.534;18.700;2023-07-22T14:10:43;8.20;;;4.72;;
25511;SDS011;13414;44.534;18.700;2023-07-22T14:13:12;5.90;;;4.20;;
25511;SDS011;13414;44.534;18.700;2023-07-22T14:15:40;7.30;;;4.90;;
25511;SDS011;13414;44.534;18.700;2023-07-22T14:18:09;7.30;;;4.90;;
25511;SDS011;13414;44.534;18.700;2023-07-22T14:20:42;6.28;;;4.55;;
25511;SDS011;13414;44.534;18.700;2023-07-22T14:23:10;6.45;;;4.70;;
25511;SDS011;13414;44.534;18.700;2023-07-22T14:25:38;7.80;;;4.88;;
25511;SDS011;13414;44.534;18.700;2023-07-22T14:28:06;6.78;;;4.75;;
25511;SDS011;13414;44.534;18.700;2023-07-22T14:30:34;6.65;;;4.63;;
25511;SDS011;13414;44.534;18.700;2023-07-22T14:33:01;7.45;;;4.78;;
25511;SDS011;13414;44.534;18.700;2023-07-22T14:35:30;8.00;;;5.00;;
25511;SDS011;13414;44.534;18.700;2023-07-22T14:38:00;7.55;;;4.88;;
25511;SDS011;13414;44.534;18.700;2023-07-22T14:40:28;7.47;;;4.70;;
25511;SDS011;13414;44.534;18.700;2023-07-22T14:42:56;6.13;;;4.75;;
25511;SDS011;13414;44.534;18.700;2023-07-22T14:45:23;8.23;;;4.53;;
25511;SDS011;13414;44.534;18.700;2023-07-22T14:47:51;7.32;;;4.95;;